createdAt,value
2023-01-20T00:02:22.791Z,4.10
2023-01-20T00:07:27.578Z,4.09
2023-01-20T00:12:31.886Z,4.08
2023-01-20T00:17:34.975Z,4.08
2023-01-20T00:22:42.385Z,4.09
2023-01-20T00:27:46.782Z,4.07
2023-01-20T00:32:50.073Z,4.07
2023-01-20T00:37:54.677Z,4.09
2023-01-20T00:42:57.874Z,4.07
2023-01-20T00:48:01.129Z,4.06
2023-01-20T00:53:05.640Z,4.04
2023-01-20T00:58:08.836Z,4.02
2023-01-20T01:03:11.881Z,4.03
2023-01-20T01:08:16.952Z,4.05
2023-01-20T01:13:20.423Z,4.01
2023-01-20T01:18:23.450Z,4.01
2023-01-20T01:23:28.031Z,3.97
2023-01-20T01:28:31.737Z,3.91
2023-01-20T01:33:35.601Z,3.96
2023-01-20T01:38:40.294Z,3.98
2023-01-20T01:44:06.871Z,3.99
2023-01-20T01:49:16.936Z,3.99
2023-01-20T01:54:25.524Z,3.97
2023-01-20T01:59:28.978Z,3.97
2023-01-20T02:04:33.948Z,3.94
2023-01-20T02:09:39.336Z,3.87
2023-01-20T02:14:47.316Z,3.86
2023-01-20T02:20:32.122Z,3.92
2023-01-20T02:26:01.985Z,3.94
2023-01-20T02:31:43.665Z,3.95
2023-01-20T02:36:52.827Z,3.93
2023-01-20T02:42:02.011Z,3.96
2023-01-20T02:47:11.899Z,3.96
2023-01-20T02:52:21.358Z,3.98
2023-01-20T02:57:29.471Z,3.98
2023-01-20T03:02:37.935Z,3.99
2023-01-20T03:07:45.579Z,3.99
2023-01-20T03:12:54.430Z,3.97
2023-01-20T03:17:58.906Z,3.97
2023-01-20T03:23:03.900Z,3.98
2023-01-20T03:28:07.228Z,3.98
2023-01-20T03:33:11.309Z,4.01
2023-01-20T03:38:16.003Z,4.02
2023-01-20T03:43:28.927Z,4.00
2023-01-20T03:48:40.552Z,4.02
2023-01-20T03:53:50.161Z,4.03
2023-01-20T03:58:55.850Z,4.04
2023-01-20T04:04:00.546Z,4.00
2023-01-20T04:09:09.415Z,4.00
2023-01-20T04:14:12.813Z,4.03
2023-01-20T04:19:15.940Z,4.03
2023-01-20T04:24:26.921Z,4.01
2023-01-20T04:29:30.096Z,4.01
2023-01-20T04:34:33.228Z,4.04
2023-01-20T04:39:37.882Z,4.01
2023-01-20T04:44:41.497Z,4.03
2023-01-20T04:49:44.572Z,4.03
2023-01-20T04:54:49.088Z,4.05
2023-01-20T04:59:52.129Z,4.02
2023-01-20T05:04:55.596Z,4.03
2023-01-20T05:10:00.131Z,4.02
2023-01-20T05:15:03.287Z,4.01
2023-01-20T05:20:07.029Z,4.03
2023-01-20T05:25:12.150Z,4.03
2023-01-20T05:30:20.337Z,4.04
2023-01-20T05:35:26.879Z,4.05
2023-01-20T05:40:31.966Z,4.03
2023-01-20T05:45:35.230Z,4.01
2023-01-20T05:50:38.511Z,4.03
2023-01-20T05:55:43.004Z,3.99
2023-01-20T06:00:50.195Z,3.94
2023-01-20T06:05:53.341Z,3.96
2023-01-20T06:11:04.947Z,3.95
2023-01-20T06:16:08.791Z,3.97
2023-01-20T06:21:16.233Z,3.95
2023-01-20T06:26:20.920Z,3.96
2023-01-20T06:31:29.044Z,3.95
2023-01-20T06:36:32.429Z,3.95
2023-01-20T06:41:39.822Z,3.94
2023-01-20T06:46:43.033Z,3.95
2023-01-20T06:51:50.205Z,3.96
2023-01-20T06:56:54.792Z,3.95
2023-01-20T07:01:58.117Z,3.96
2023-01-20T07:07:04.075Z,3.93
2023-01-20T07:12:08.725Z,3.92
2023-01-20T07:17:13.522Z,3.84
2023-01-20T07:22:16.644Z,3.80
2023-01-20T07:27:21.470Z,3.73
2023-01-20T07:32:24.778Z,3.70
2023-01-20T07:37:28.090Z,3.76
2023-01-20T07:42:32.747Z,3.82
2023-01-20T07:47:35.801Z,3.87
2023-01-20T07:52:39.061Z,3.86
2023-01-20T07:57:43.687Z,3.83
2023-01-20T08:02:47.375Z,3.81
2023-01-20T08:07:53.293Z,3.82
2023-01-20T08:12:57.843Z,3.79
2023-01-20T08:18:01.128Z,3.80
2023-01-20T08:23:04.248Z,3.76
2023-01-20T08:28:09.183Z,3.73
2023-01-20T08:33:12.405Z,3.72
2023-01-20T08:38:15.808Z,3.75
2023-01-20T08:43:20.601Z,3.76
2023-01-20T08:48:23.858Z,3.73
2023-01-20T08:53:27.412Z,3.77
2023-01-20T08:58:32.446Z,3.81
2023-01-20T09:03:35.787Z,3.84
2023-01-20T09:08:39.362Z,3.98
2023-01-20T09:13:44.065Z,4.19
2023-01-20T09:18:47.127Z,4.36
2023-01-20T09:23:50.129Z,4.51
2023-01-20T09:28:54.731Z,4.67
2023-01-20T09:33:57.803Z,4.75
2023-01-20T09:39:18.205Z,4.90
2023-01-20T09:44:35.384Z,4.98
2023-01-20T09:50:02.644Z,5.00
2023-01-20T09:55:13.539Z,5.07
2023-01-20T10:00:23.365Z,5.09
2023-01-20T10:05:33.176Z,5.11
2023-01-20T10:10:41.228Z,5.18
2023-01-20T10:15:50.242Z,5.20
2023-01-20T10:21:00.927Z,5.24
2023-01-20T10:26:09.875Z,5.39
2023-01-20T10:31:18.983Z,5.51
2023-01-20T10:36:30.831Z,5.54
2023-01-20T10:41:40.496Z,5.66
2023-01-20T10:46:58.907Z,5.79
2023-01-20T10:52:15.635Z,5.96
2023-01-20T10:57:18.760Z,6.06
2023-01-20T11:02:26.952Z,6.14
2023-01-20T11:07:35.611Z,6.25
2023-01-20T11:12:43.031Z,6.32
2023-01-20T11:17:47.579Z,6.39
2023-01-20T11:22:51.571Z,6.36
2023-01-20T11:27:55.366Z,6.37
2023-01-20T11:33:21.060Z,6.47
2023-01-20T11:38:25.593Z,6.50
2023-01-20T11:43:30.467Z,6.54
2023-01-20T11:48:35.165Z,6.47
2023-01-20T11:53:38.427Z,6.54
2023-01-20T11:58:51.690Z,6.53
2023-01-20T12:04:21.274Z,6.51
2023-01-20T12:09:29.643Z,6.44
2023-01-20T12:14:38.594Z,6.50
2023-01-20T12:19:55.162Z,6.48
2023-01-20T12:25:11.664Z,6.51
2023-01-20T12:30:36.340Z,6.62
2023-01-20T12:35:48.213Z,6.68
2023-01-20T12:40:54.307Z,6.73
2023-01-20T12:46:11.457Z,6.67
2023-01-20T12:51:30.287Z,6.74
2023-01-20T12:56:41.551Z,6.74
2023-01-20T13:01:55.447Z,6.79
2023-01-20T13:07:15.515Z,6.85
2023-01-20T13:12:36.500Z,6.89
2023-01-20T13:17:45.885Z,6.89
2023-01-20T13:22:51.433Z,6.89
2023-01-20T13:27:55.645Z,6.67
2023-01-20T13:33:07.810Z,6.69
2023-01-20T13:38:21.269Z,6.64
2023-01-20T13:43:48.874Z,6.63
2023-01-20T13:49:21.644Z,6.50
2023-01-20T13:54:43.676Z,6.48
2023-01-20T13:59:46.890Z,6.43
2023-01-20T14:04:50.288Z,6.49
2023-01-20T14:09:56.935Z,6.48
2023-01-20T14:15:00.156Z,6.48
2023-01-20T14:20:03.247Z,6.41
2023-01-20T14:25:22.889Z,6.38
2023-01-20T14:30:28.378Z,6.22
2023-01-20T14:35:34.427Z,6.14
2023-01-20T14:40:40.521Z,6.07
2023-01-20T14:45:46.669Z,6.00
2023-01-20T14:50:52.510Z,5.97
2023-01-20T14:56:03.081Z,5.94
2023-01-20T15:01:07.780Z,5.87
2023-01-20T15:06:21.981Z,5.80
2023-01-20T15:11:31.301Z,5.72
2023-01-20T15:16:44.653Z,5.66
2023-01-20T15:21:50.416Z,5.59
2023-01-20T15:26:56.619Z,5.49
2023-01-20T15:32:02.562Z,5.39
2023-01-20T15:37:16.382Z,5.33
2023-01-20T15:42:21.036Z,5.32
2023-01-20T15:47:31.081Z,5.21
2023-01-20T15:52:35.656Z,5.13
2023-01-20T15:57:40.211Z,5.09
2023-01-20T16:02:43.830Z,5.02
2023-01-20T16:07:49.578Z,4.92
2023-01-20T16:12:54.160Z,4.88
2023-01-20T16:17:57.154Z,4.94
2023-01-20T16:23:00.256Z,4.90
2023-01-20T16:28:13.420Z,4.86
2023-01-20T16:33:19.312Z,4.83
2023-01-20T16:38:25.316Z,4.81
2023-01-20T16:43:30.106Z,4.81
2023-01-20T16:48:40.184Z,4.75
2023-01-20T16:53:43.364Z,4.76
2023-01-20T16:58:52.518Z,4.72
2023-01-20T17:03:57.753Z,4.70
2023-01-20T17:09:03.980Z,4.66
2023-01-20T17:14:10.381Z,4.64
2023-01-20T17:19:15.094Z,4.60
2023-01-20T17:24:20.399Z,4.53
2023-01-20T17:29:28.004Z,4.46
2023-01-20T17:34:31.098Z,4.36
2023-01-20T17:39:34.179Z,4.23
2023-01-20T17:44:38.820Z,4.06
2023-01-20T17:49:42.008Z,3.93
2023-01-20T17:54:45.144Z,3.81
2023-01-20T17:59:49.951Z,3.73
2023-01-20T18:04:59.728Z,3.62
2023-01-20T18:10:02.769Z,3.53
2023-01-20T18:15:09.581Z,3.46
2023-01-20T18:20:19.820Z,3.39
2023-01-20T18:25:23.005Z,3.29
2023-01-20T18:30:27.761Z,3.23
2023-01-20T18:35:40.313Z,3.16
2023-01-20T18:40:46.253Z,3.06
2023-01-20T18:45:54.117Z,3.02
2023-01-20T18:51:00.890Z,2.95
2023-01-20T18:56:05.592Z,2.86
2023-01-20T19:01:13.214Z,2.81
2023-01-20T19:06:18.882Z,2.74
2023-01-20T19:11:24.324Z,2.67
2023-01-20T19:16:32.674Z,2.61
2023-01-20T19:21:39.570Z,2.57
2023-01-20T19:26:44.287Z,2.59
2023-01-20T19:31:49.613Z,2.65
2023-01-20T19:37:01.438Z,2.73
2023-01-20T19:42:04.990Z,2.75
2023-01-20T19:47:13.410Z,2.76
2023-01-20T19:52:16.557Z,2.76
2023-01-20T19:57:19.674Z,2.77
2023-01-20T20:02:28.778Z,2.78
2023-01-20T20:07:43.024Z,2.74
2023-01-20T20:12:46.227Z,2.74
2023-01-20T20:17:50.916Z,2.70
2023-01-20T20:22:59.408Z,2.61
2023-01-20T20:28:03.006Z,2.58
2023-01-20T20:33:07.534Z,2.55
2023-01-20T20:38:10.543Z,2.51
2023-01-20T20:43:13.966Z,2.44
2023-01-20T20:48:32.686Z,2.33
2023-01-20T20:53:45.685Z,2.24
2023-01-20T20:59:06.589Z,2.18
2023-01-20T21:04:22.953Z,2.09
2023-01-20T21:09:26.367Z,2.07
2023-01-20T21:14:32.865Z,2.05
2023-01-20T21:19:53.356Z,2.07
2023-01-20T21:25:09.083Z,2.07
2023-01-20T21:30:16.091Z,2.11
2023-01-20T21:35:21.074Z,2.11
2023-01-20T21:40:25.111Z,2.09
2023-01-20T21:45:33.191Z,2.14
2023-01-20T21:50:55.539Z,2.22
2023-01-20T21:55:58.635Z,2.26
2023-01-20T22:01:04.452Z,2.27
2023-01-20T22:06:09.725Z,2.32
2023-01-20T22:11:12.971Z,2.34
2023-01-20T22:16:16.120Z,2.38
2023-01-20T22:21:22.021Z,2.44
2023-01-20T22:26:25.240Z,2.46
2023-01-20T22:31:30.887Z,2.46
2023-01-20T22:36:36.097Z,2.49
2023-01-20T22:41:39.265Z,2.50
2023-01-20T22:46:42.259Z,2.49
2023-01-20T22:51:46.952Z,2.41
2023-01-20T22:56:54.016Z,2.45
2023-01-20T23:01:57.182Z,2.47
2023-01-20T23:07:01.955Z,2.50
2023-01-20T23:12:05.611Z,2.48
2023-01-20T23:17:08.764Z,2.54
2023-01-20T23:22:14.733Z,2.55
2023-01-20T23:27:18.242Z,2.46
2023-01-20T23:32:21.598Z,2.39
2023-01-20T23:37:26.012Z,2.39
2023-01-20T23:42:29.139Z,2.42
2023-01-20T23:47:36.053Z,2.46
2023-01-20T23:52:40.764Z,2.44
2023-01-20T23:57:43.992Z,2.40
